Time;durP1;ratioP1;P1;durP2;ratioP2;P2;SDS_P1;SDS_P2;PMS_P1;PMS_P2;Temp;Humidity;BMP_temperature;BMP_pressure;BME280_temperature;BME280_humidity;BME280_pressure;Samples;Min_cycle;Max_cycle;Signal;HPM_P1;HPM_P2
2021/09/04 00:01:18;;;;;;;6.50;5.90;;;;;;;16.49;70.58;95070.78;4997514;28;20523;-82
2021/09/04 00:03:44;;;;;;;6.83;6.13;;;;;;;16.51;70.72;95078.56;5032056;28;20486;-81
2021/09/04 00:06:11;;;;;;;6.30;5.80;;;;;;;16.55;71.04;95088.69;5032290;28;20476;-81
2021/09/04 00:08:38;;;;;;;6.90;6.20;;;;;;;16.53;71.02;95080.06;5032157;28;20536;-81
2021/09/04 00:11:05;;;;;;;7.63;5.80;;;;;;;16.55;70.17;95077.25;5031864;28;20442;-81
2021/09/04 00:13:32;;;;;;;8.43;6.57;;;;;;;16.54;70.48;95087.03;5032319;28;20446;-81
2021/09/04 00:16:01;;;;;;;6.13;5.53;;;;;;;16.51;70.61;95097.94;5032176;28;20454;-81
2021/09/04 00:18:30;;;;;;;6.40;5.80;;;;;;;16.51;70.81;95097.13;4997098;28;20972;-81
2021/09/04 00:20:58;;;;;;;7.83;6.30;;;;;;;16.47;70.75;95096.59;5031998;28;20529;-81
2021/09/04 00:23:24;;;;;;;8.63;6.00;;;;;;;16.45;70.67;95087.97;4981197;28;20516;-81
2021/09/04 00:25:51;;;;;;;7.57;6.13;;;;;;;16.41;70.51;95097.25;5031977;28;20894;-81
2021/09/04 00:28:18;;;;;;;9.50;7.30;;;;;;;16.15;71.23;95092.00;5031861;28;21000;-81
2021/09/04 00:30:45;;;;;;;10.20;5.80;;;;;;;16.18;71.15;95094.34;5032131;28;21010;-81
2021/09/04 00:33:14;;;;;;;6.87;6.17;;;;;;;16.09;71.44;95100.59;5033963;28;20820;-81
2021/09/04 00:35:41;;;;;;;8.10;7.40;;;;;;;15.96;71.87;95103.69;5035516;28;20456;-81
2021/09/04 00:38:08;;;;;;;7.17;6.10;;;;;;;15.94;72.51;95100.38;5035449;28;20539;-81
2021/09/04 00:40:35;;;;;;;7.00;5.33;;;;;;;15.85;73.10;95103.09;5035336;28;20534;-81
2021/09/04 00:43:02;;;;;;;6.50;6.00;;;;;;;15.73;73.88;95099.91;5035556;28;20457;-81
2021/09/04 00:45:29;;;;;;;7.00;6.10;;;;;;;15.64;73.96;95098.22;5035174;28;20495;-81
2021/09/04 00:47:59;;;;;;;8.13;7.30;;;;;;;15.64;74.35;95108.78;5035307;28;20526;-81
2021/09/04 00:50:28;;;;;;;6.43;5.87;;;;;;;15.62;73.80;95094.88;5000651;28;20431;-81
2021/09/04 00:52:56;;;;;;;9.50;7.50;;;;;;;15.66;74.01;95094.41;5035256;28;21027;-81
2021/09/04 00:55:25;;;;;;;8.33;7.40;;;;;;;15.74;73.75;95088.34;5035330;28;20444;-81
2021/09/04 00:57:52;;;;;;;7.70;6.87;;;;;;;15.75;73.72;95084.69;5035430;28;20456;-81
2021/09/04 01:00:19;;;;;;;7.50;6.70;;;;;;;15.80;73.43;95088.53;5035856;28;20453;-81
2021/09/04 01:02:46;;;;;;;11.13;6.90;;;;;;;15.85;73.71;95090.69;5035092;28;20449;-81
2021/09/04 01:05:13;;;;;;;11.47;7.00;;;;;;;15.83;73.83;95087.38;5035388;28;20514;-81
2021/09/04 01:07:43;;;;;;;7.23;6.27;;;;;;;15.81;73.81;95073.47;5035181;28;20429;-81
2021/09/04 01:10:11;;;;;;;7.50;6.80;;;;;;;15.78;74.02;95068.50;5032988;28;20451;-81
2021/09/04 01:12:39;;;;;;;6.57;5.93;;;;;;;15.82;73.86;95067.22;5035300;28;20444;-81
2021/09/04 01:15:08;;;;;;;7.10;6.50;;;;;;;15.82;73.90;95067.22;5034862;28;20937;-81
2021/09/04 01:17:35;;;;;;;8.70;7.03;;;;;;;15.79;73.80;95065.72;5032537;28;20469;-81
2021/09/04 01:20:02;;;;;;;6.97;5.90;;;;;;;15.75;74.45;95063.53;5034902;28;20476;-81
2021/09/04 01:22:31;;;;;;;10.20;8.03;;;;;;;15.68;74.41;95063.34;5034690;28;20536;-81
2021/09/04 01:25:03;;;;;;;7.60;6.47;;;;;;;15.69;74.36;95053.59;5034994;28;20487;-81
2021/09/04 01:27:33;;;;;;;7.70;6.90;;;;;;;15.68;74.45;95062.50;5034759;28;20439;-81
2021/09/04 01:30:00;;;;;;;7.33;6.57;;;;;;;15.68;74.77;95057.22;5032600;28;20443;-81
2021/09/04 01:32:27;;;;;;;6.93;6.23;;;;;;;15.63;74.55;95052.41;5034584;28;20814;-81
2021/09/04 01:34:54;;;;;;;7.50;6.70;;;;;;;15.66;74.59;95048.63;5034385;28;20547;-81
2021/09/04 01:37:21;;;;;;;6.70;6.10;;;;;;;15.67;74.83;95044.97;5034844;28;20443;-81
2021/09/04 01:39:48;;;;;;;7.00;6.27;;;;;;;15.68;74.97;95044.00;5034897;28;20539;-81
2021/09/04 01:42:15;;;;;;;6.77;6.20;;;;;;;15.60;75.17;95043.94;5034445;28;20535;-81
2021/09/04 01:44:43;;;;;;;7.47;6.00;;;;;;;15.61;75.06;95053.53;5015362;28;20481;-81
2021/09/04 01:47:10;;;;;;;9.70;7.00;;;;;;;15.59;74.87;95045.75;5034604;28;20455;-80
2021/09/04 01:49:37;;;;;;;6.70;6.00;;;;;;;15.61;75.12;95053.53;5032321;28;20447;-81
2021/09/04 01:52:05;;;;;;;9.10;6.80;;;;;;;15.62;74.96;95049.91;5034404;28;20443;-81
2021/09/04 01:54:32;;;;;;;8.10;7.20;;;;;;;15.52;75.64;95049.16;5016052;28;20463;-81
2021/09/04 01:57:01;;;;;;;8.33;7.50;;;;;;;15.56;75.07;95043.38;5032380;28;20526;-81
2021/09/04 01:59:28;;;;;;;9.80;7.00;;;;;;;15.52;75.40;95054.44;5042281;28;20453;-81
2021/09/04 02:01:57;;;;;;;8.23;6.50;;;;;;;15.44;75.15;95042.81;5044757;28;21026;-81
2021/09/04 02:04:24;;;;;;;7.40;6.70;;;;;;;15.43;75.00;95037.69;5034124;28;20489;-80
2021/09/04 02:06:51;;;;;;;10.50;6.97;;;;;;;15.43;75.30;95043.81;5034106;28;20444;-81
2021/09/04 02:09:18;;;;;;;8.40;7.00;;;;;;;15.43;75.43;95048.28;5033754;28;20926;-81
2021/09/04 02:11:45;;;;;;;8.40;6.57;;;;;;;15.41;75.57;95040.50;4998914;28;20522;-81
2021/09/04 02:14:12;;;;;;;8.67;6.60;;;;;;;15.39;76.03;95042.47;5033875;28;20517;-81
2021/09/04 02:16:39;;;;;;;11.00;6.90;;;;;;;15.34;76.07;95036.81;5033250;28;20940;-80
2021/09/04 02:19:07;;;;;;;8.00;6.50;;;;;;;15.26;77.06;95042.03;5031549;28;20518;-81
2021/09/04 02:21:34;;;;;;;13.33;7.87;;;;;;;15.26;77.29;95038.56;5031656;28;20928;-81
2021/09/04 02:24:01;;;;;;;7.70;6.97;;;;;;;15.24;77.71;95040.53;5033289;28;20449;-81
2021/09/04 02:26:28;;;;;;;9.30;7.40;;;;;;;15.15;78.08;95026.44;5033452;28;20453;-81
2021/09/04 02:28:55;;;;;;;9.73;7.70;;;;;;;15.07;78.72;95032.50;5033716;28;20445;-81
2021/09/04 02:31:24;;;;;;;9.83;7.90;;;;;;;15.04;79.14;95032.00;5033682;28;20445;-81
2021/09/04 02:33:52;;;;;;;8.40;7.60;;;;;;;15.04;79.07;95027.53;5033533;28;20447;-81
2021/09/04 02:36:20;;;;;;;8.37;7.57;;;;;;;14.97;79.15;95025.63;5014972;28;20446;-81
2021/09/04 02:38:47;;;;;;;8.37;7.47;;;;;;;14.83;79.87;95029.66;5032927;28;20963;-81
2021/09/04 02:41:14;;;;;;;9.30;7.60;;;;;;;14.80;80.43;95020.22;5031307;28;20456;-81
2021/09/04 02:43:42;;;;;;;7.90;7.10;;;;;;;14.77;80.94;95025.81;5032974;28;21027;-81
2021/09/04 02:46:09;;;;;;;8.83;7.97;;;;;;;14.77;81.00;95025.81;5033208;28;20484;-81
2021/09/04 02:48:36;;;;;;;8.97;8.07;;;;;;;14.74;81.26;95028.75;5033160;28;20572;-81
2021/09/04 02:51:03;;;;;;;11.43;8.27;;;;;;;14.71;81.21;95020.28;5033082;28;20453;-81
2021/09/04 02:53:32;;;;;;;16.93;8.67;;;;;;;14.70;81.14;95022.09;5033040;28;20489;-81
2021/09/04 02:56:00;;;;;;;8.97;8.03;;;;;;;14.57;81.93;95016.41;5032464;28;20942;-81
2021/09/04 02:58:27;;;;;;;9.00;8.20;;;;;;;14.62;81.85;95014.13;5032985;28;20544;-81
2021/09/04 03:00:54;;;;;;;9.27;8.37;;;;;;;14.54;82.14;95008.78;5014565;28;20445;-81
2021/09/04 03:03:21;;;;;;;9.03;8.10;;;;;;;14.67;81.98;95014.50;5030717;28;20509;-80
2021/09/04 03:05:48;;;;;;;9.30;8.37;;;;;;;14.77;81.44;95015.25;5032997;28;20482;-81
2021/09/04 03:08:15;;;;;;;12.70;8.07;;;;;;;14.73;81.73;95013.03;4998155;28;20450;-81
2021/09/04 03:10:43;;;;;;;8.20;7.40;;;;;;;14.79;81.71;95010.66;5014329;28;20431;-81
2021/09/04 03:13:10;;;;;;;8.53;7.70;;;;;;;14.86;81.39;95016.97;5033006;28;20522;-81
2021/09/04 03:15:37;;;;;;;10.70;8.50;;;;;;;14.93;80.74;95016.34;5032680;28;20445;-81
2021/09/04 03:18:04;;;;;;;9.30;8.37;;;;;;;14.93;80.99;95014.53;5032623;28;20526;-80
2021/09/04 03:20:31;;;;;;;10.40;9.10;;;;;;;14.95;80.73;95020.50;5032672;28;20447;-81
2021/09/04 03:22:58;;;;;;;9.23;7.90;;;;;;;14.95;80.73;95023.16;5032384;28;20982;-81
2021/09/04 03:25:25;;;;;;;9.37;7.77;;;;;;;14.92;80.43;95025.25;5032383;28;20479;-81
2021/09/04 03:27:53;;;;;;;11.40;7.27;;;;;;;14.94;80.46;95024.13;5032511;28;20895;-81
2021/09/04 03:30:20;;;;;;;11.03;8.77;;;;;;;14.85;80.66;95027.69;5032638;28;20443;-80
2021/09/04 03:32:47;;;;;;;12.33;7.60;;;;;;;14.87;80.70;95037.13;5032395;28;20444;-81
2021/09/04 03:35:14;;;;;;;8.37;7.53;;;;;;;14.82;80.79;95034.13;5032624;28;20785;-80
2021/09/04 03:37:41;;;;;;;7.60;6.73;;;;;;;14.81;80.69;95032.47;5032408;28;20451;-81
2021/09/04 03:40:11;;;;;;;9.13;6.73;;;;;;;14.80;80.56;95038.72;5032346;28;20456;-81
2021/09/04 03:42:38;;;;;;;10.33;9.00;;;;;;;14.82;80.41;95034.13;5032276;28;20485;-81
2021/09/04 03:45:08;;;;;;;8.63;7.70;;;;;;;14.82;80.33;95036.75;5030088;28;20862;-80
2021/09/04 03:47:35;;;;;;;9.20;7.40;;;;;;;14.80;80.37;95027.34;5032230;28;20526;-81
2021/09/04 03:50:02;;;;;;;7.60;6.90;;;;;;;14.78;79.97;95038.06;5032280;28;20530;-81
2021/09/04 03:52:29;;;;;;;8.90;8.00;;;;;;;14.77;79.72;95041.69;5032491;28;20518;-81
2021/09/04 03:54:56;;;;;;;9.93;8.00;;;;;;;14.77;79.82;95036.38;4997130;28;20947;-81
2021/09/04 03:57:23;;;;;;;8.17;7.37;;;;;;;14.73;79.88;95037.66;5030360;28;20521;-81
2021/09/04 03:59:50;;;;;;;8.93;7.87;;;;;;;14.75;79.48;95038.34;4997215;28;20442;-81
2021/09/04 04:02:18;;;;;;;8.37;7.67;;;;;;;14.78;79.32;95032.75;5032750;28;21195;-81
2021/09/04 04:04:45;;;;;;;10.73;7.30;;;;;;;14.81;79.24;95032.47;5031964;28;20474;-81
2021/09/04 04:07:12;;;;;;;11.30;8.03;;;;;;;14.86;78.71;95019.63;5032697;28;20808;-81
2021/09/04 04:09:39;;;;;;;8.13;7.33;;;;;;;14.77;79.21;95025.81;5036142;28;20454;-81
2021/09/04 04:12:06;;;;;;;8.97;7.37;;;;;;;14.77;79.34;95020.53;5036029;28;20446;-80
2021/09/04 04:14:33;;;;;;;8.87;6.60;;;;;;;14.82;79.15;95012.16;5035661;28;20526;-81
2021/09/04 04:17:01;;;;;;;10.10;7.63;;;;;;;15.01;79.24;95019.88;5037161;28;20967;-81
2021/09/04 04:19:30;;;;;;;10.60;7.73;;;;;;;15.34;77.91;95023.59;5036515;28;20766;-81
2021/09/04 04:21:56;;;;;;;11.20;7.57;;;;;;;15.67;75.75;95021.16;5036509;28;20435;-81
2021/09/04 04:24:23;;;;;;;11.33;7.30;;;;;;;16.10;73.94;95015.72;5036618;28;20444;-81
2021/09/04 04:26:50;;;;;;;8.30;7.50;;;;;;;16.79;71.11;95023.50;5036288;28;20566;-81
2021/09/04 04:29:17;;;;;;;8.53;7.30;;;;;;;17.30;69.55;95017.84;5036472;28;20449;-81
2021/09/04 04:31:44;;;;;;;8.83;7.67;;;;;;;17.84;67.08;95017.25;5034746;28;20447;-81
2021/09/04 04:34:11;;;;;;;7.87;7.10;;;;;;;18.39;65.44;95021.66;5036281;28;20520;-81
2021/09/04 04:36:40;;;;;;;7.63;6.40;;;;;;;18.92;63.33;95033.31;5036610;28;20439;-81
2021/09/04 04:45:50;;;;;;;8.00;6.57;;;;;;;20.49;57.39;95043.88;5036213;28;20469;-81
2021/09/04 04:48:18;;;;;;;6.80;6.20;;;;;;;20.76;56.33;95035.16;5036385;28;20447;-81
2021/09/04 04:50:45;;;;;;;7.60;6.80;;;;;;;21.07;55.23;95042.88;5036383;28;20527;-81
2021/09/04 04:53:14;;;;;;;6.70;6.10;;;;;;;21.42;54.39;95035.84;5036126;28;20444;-81
2021/09/04 04:55:41;;;;;;;8.17;7.20;;;;;;;21.17;55.28;95037.25;5036117;28;20924;-81
2021/09/04 05:01:32;;;;;;;9.20;7.40;;;;;;;20.77;56.33;95052.81;5036059;28;20439;-84
2021/09/04 05:03:59;;;;;;;11.97;7.70;;;;;;;20.42;57.18;95055.31;5035863;28;20436;-83
2021/09/04 05:06:26;;;;;;;13.37;8.10;;;;;;;19.99;58.50;95058.81;5035738;28;20839;-84
2021/09/04 05:08:54;;;;;;;11.07;7.70;;;;;;;19.96;59.29;95056.50;5035750;28;20423;-83
2021/09/04 05:17:50;;;;;;;11.03;9.90;;;;;;;19.77;67.20;95056.03;4985858;28;20538;-83
2021/09/04 05:20:17;;;;;;;12.23;8.30;;;;;;;20.37;63.70;95049.69;4993400;28;20475;-83
2021/09/04 05:22:46;;;;;;;12.73;9.00;;;;;;;20.96;61.26;95046.06;4994977;28;20455;-83
2021/09/04 05:25:16;;;;;;;13.30;7.63;;;;;;;21.40;59.78;95043.22;4994141;28;20485;-82
2021/09/04 05:27:43;;;;;;;11.63;8.03;;;;;;;21.55;58.91;95057.31;4994264;28;20508;-80
2021/09/04 05:30:11;;;;;;;14.60;11.00;;;;;;;21.96;57.86;95045.88;4994639;28;20532;-81
2021/09/04 05:32:39;;;;;;;12.90;8.80;;;;;;;22.28;55.52;95054.31;4996686;28;20443;-82
2021/09/04 05:35:06;;;;;;;16.30;10.50;;;;;;;22.66;55.22;95058.19;4972181;28;20522;-82
2021/09/04 05:37:34;;;;;;;14.07;10.57;;;;;;;23.13;52.68;95064.50;4998104;28;20542;-82
2021/09/04 05:40:00;;;;;;;13.30;9.60;;;;;;;23.59;61.32;95058.41;4993870;28;20534;-86
2021/09/04 05:42:29;;;;;;;9.63;8.00;;;;;;;23.66;49.15;95060.06;4993891;28;20891;-80
2021/09/04 05:44:56;;;;;;;18.80;9.10;;;;;;;24.03;50.41;95066.66;5015411;28;20471;-80
2021/09/04 05:47:23;;;;;;;10.00;8.47;;;;;;;24.18;48.01;95058.34;5035137;28;21046;-81
2021/09/04 05:49:50;;;;;;;10.67;7.73;;;;;;;24.17;49.19;95050.53;5034882;28;21001;-80
2021/09/04 05:52:17;;;;;;;10.83;9.63;;;;;;;24.18;49.51;95050.31;5000797;28;20440;-82
2021/09/04 05:54:43;;;;;;;17.50;9.10;;;;;;;24.34;51.49;95049.91;5035147;28;20870;-83
2021/09/04 05:57:10;;;;;;;10.13;7.57;;;;;;;24.05;48.87;95059.22;5034754;28;20444;-81
2021/09/04 05:59:39;;;;;;;10.93;9.47;;;;;;;24.13;48.54;95063.53;5035345;28;20440;-81
2021/09/04 06:02:06;;;;;;;12.13;8.27;;;;;;;24.28;50.70;95060.63;5034716;28;20441;-81
2021/09/04 06:05:03;;;;;;;9.33;8.43;;;;;;;24.48;49.60;95053.34;5034786;28;20454;-81
2021/09/04 06:07:30;;;;;;;14.53;9.13;;;;;;;24.54;49.59;95046.31;5034789;28;20517;-80
2021/09/04 06:09:57;;;;;;;9.90;8.20;;;;;;;24.66;48.75;95041.94;5034551;28;20503;-82
2021/09/04 06:12:24;;;;;;;11.47;8.27;;;;;;;24.88;48.45;95040.59;5032790;28;20523;-81
2021/09/04 06:14:52;;;;;;;6.43;5.87;;;;;;;25.13;46.84;95037.97;5035370;28;20437;-81
2021/09/04 06:17:19;;;;;;;7.03;6.00;;;;;;;25.40;46.91;95044.00;5034834;28;20449;-81
2021/09/04 06:19:46;;;;;;;8.30;7.40;;;;;;;25.53;45.37;95049.28;5034893;28;20489;-81
2021/09/04 06:22:13;;;;;;;8.47;7.60;;;;;;;25.53;47.30;95049.28;5034606;28;20521;-80
2021/09/04 06:24:43;;;;;;;6.87;6.17;;;;;;;25.75;47.60;95048.94;5032415;28;20811;-81
2021/09/04 06:27:10;;;;;;;9.23;7.23;;;;;;;26.07;47.80;95055.06;5034683;28;20573;-83
2021/09/04 06:29:37;;;;;;;10.43;7.60;;;;;;;26.27;45.33;95052.97;5034469;28;20514;-81
2021/09/04 06:32:06;;;;;;;8.13;7.33;;;;;;;26.35;44.63;95050.03;5034249;28;20857;-81
2021/09/04 06:34:33;;;;;;;7.83;7.13;;;;;;;26.42;44.22;95049.97;5016153;28;20447;-79
2021/09/04 06:37:00;;;;;;;14.10;7.60;;;;;;;26.52;43.55;95045.69;5034405;28;20435;-78
2021/09/04 06:39:27;;;;;;;8.37;6.57;;;;;;;26.44;41.67;95027.16;5033918;28;20481;-79
2021/09/04 06:41:54;;;;;;;8.90;7.77;;;;;;;26.14;42.18;95026.22;5034243;28;20973;-79
2021/09/04 06:44:23;;;;;;;9.60;8.70;;;;;;;25.85;42.67;95023.19;5034194;28;20456;-79
2021/09/04 06:46:50;;;;;;;11.70;8.10;;;;;;;25.38;43.47;95034.50;5034043;28;20529;-79
2021/09/04 06:49:19;;;;;;;8.57;7.70;;;;;;;25.20;43.70;95043.31;5033761;28;20462;-79
2021/09/04 06:51:46;;;;;;;9.23;7.90;;;;;;;25.10;45.74;95040.28;5033725;28;20449;-79
2021/09/04 06:54:12;;;;;;;11.50;8.67;;;;;;;25.08;44.98;95040.50;5034353;28;20435;-79
2021/09/04 07:03:23;;;;;;;13.23;7.90;;;;;;;25.06;46.40;95036.38;5033048;28;20921;-79
2021/09/04 07:05:51;;;;;;;20.23;16.40;;;;;;;24.75;46.11;95034.44;5033422;28;20483;-80
2021/09/04 07:08:18;;;;;;;9.63;8.30;;;;;;;24.03;47.00;95039.00;5033109;28;20943;-79
2021/09/04 07:10:45;;;;;;;9.37;8.47;;;;;;;24.10;47.65;95037.13;5033879;28;20540;-79
2021/09/04 07:13:12;;;;;;;11.07;9.30;;;;;;;24.02;48.20;95032.00;5034065;28;20527;-79
2021/09/04 07:15:40;;;;;;;8.77;7.70;;;;;;;23.96;47.84;95030.97;5032531;28;20458;-79
2021/09/04 07:18:07;;;;;;;11.30;8.40;;;;;;;23.98;48.92;95028.88;5033585;28;20480;-79
2021/09/04 07:20:34;;;;;;;12.40;8.93;;;;;;;23.87;49.33;95026.03;5033597;28;20432;-81
2021/09/04 07:23:03;;;;;;;11.23;7.93;;;;;;;23.87;47.97;95015.31;5033343;28;20527;-80
2021/09/04 07:25:30;;;;;;;9.73;7.60;;;;;;;23.88;48.68;95017.78;5033640;28;20453;-79
2021/09/04 07:27:56;;;;;;;11.57;9.00;;;;;;;24.01;48.24;95017.78;5033996;28;20508;-81
2021/09/04 07:30:23;;;;;;;7.80;7.10;;;;;;;24.17;48.04;95026.38;5033688;28;20464;-79
2021/09/04 07:32:50;;;;;;;11.40;7.90;;;;;;;24.50;46.68;95024.44;5034240;28;20516;-79
2021/09/04 07:35:17;;;;;;;8.50;7.23;;;;;;;24.59;45.20;95022.34;5031632;28;20446;-78
2021/09/04 07:37:44;;;;;;;14.73;8.90;;;;;;;24.65;47.71;95026.88;5032910;28;20933;-78
2021/09/04 07:40:13;;;;;;;13.50;8.40;;;;;;;24.84;47.13;95025.09;5033610;28;20532;-78
2021/09/04 07:42:42;;;;;;;9.70;8.70;;;;;;;25.07;45.48;95029.97;5034811;28;20455;-77
2021/09/04 07:45:10;;;;;;;10.37;8.13;;;;;;;25.16;45.32;95031.38;5036872;28;21059;-78
2021/09/04 07:47:37;;;;;;;22.03;8.37;;;;;;;25.18;47.09;95035.50;5018868;28;20572;-78
2021/09/04 07:50:05;;;;;;;13.07;9.00;;;;;;;25.30;46.61;95044.47;5015780;28;20543;-78
2021/09/04 07:52:32;;;;;;;15.93;8.10;;;;;;;25.30;44.94;95041.78;5017364;28;20448;-78
2021/09/04 07:54:59;;;;;;;9.27;7.73;;;;;;;25.18;44.65;95045.41;5017832;28;21001;-78
2021/09/04 07:57:27;;;;;;;18.17;9.00;;;;;;;25.04;44.79;95041.13;5015633;28;20447;-78
2021/09/04 07:59:56;;;;;;;13.93;7.90;;;;;;;25.06;46.45;95047.94;5018084;28;20521;-78
2021/09/04 08:02:22;;;;;;;14.97;8.90;;;;;;;25.03;44.63;95037.63;5017410;28;20451;-78
2021/09/04 08:04:49;;;;;;;12.83;7.53;;;;;;;25.17;46.73;95044.59;5036800;28;20463;-78
2021/09/04 08:07:16;;;;;;;10.10;8.93;;;;;;;25.13;45.18;95039.84;5037534;28;20503;-78
2021/09/04 08:09:43;;;;;;;10.60;8.73;;;;;;;24.80;45.18;95034.63;5037375;28;20862;-78
2021/09/04 08:12:10;;;;;;;10.93;8.70;;;;;;;24.48;46.12;95039.94;5037334;28;20450;-78
2021/09/04 08:14:39;;;;;;;13.97;7.70;;;;;;;24.65;47.87;95035.75;5037351;28;20432;-78
2021/09/04 08:17:05;;;;;;;12.57;8.70;;;;;;;24.86;47.22;95031.91;5037461;28;20457;-78
2021/09/04 08:19:32;;;;;;;11.60;8.87;;;;;;;25.06;45.76;95036.38;5037013;28;20974;-78
2021/09/04 08:22:01;;;;;;;10.23;7.30;;;;;;;24.87;46.30;95032.75;5036824;28;20456;-78
2021/09/04 08:24:28;;;;;;;11.30;8.20;;;;;;;24.92;46.74;95040.97;5037211;28;20481;-78
2021/09/04 08:26:55;;;;;;;12.00;8.87;;;;;;;24.82;45.55;95043.28;5018730;28;20486;-78
2021/09/04 08:29:22;;;;;;;8.67;7.77;;;;;;;24.92;45.43;95047.19;5036785;28;20444;-78
2021/09/04 08:31:50;;;;;;;12.07;7.30;;;;;;;25.04;45.44;95049.19;5037269;28;20525;-78
2021/09/04 08:34:17;;;;;;;9.10;8.13;;;;;;;25.08;45.02;95043.19;5036852;28;20533;-78
2021/09/04 08:36:45;;;;;;;9.03;8.00;;;;;;;25.07;44.67;95038.84;5036728;28;20442;-78
2021/09/04 08:39:13;;;;;;;14.30;7.30;;;;;;;25.10;44.27;95038.41;5036569;28;20444;-78
2021/09/04 08:41:40;;;;;;;9.83;7.20;;;;;;;25.09;45.65;95034.06;5036845;28;20436;-78
2021/09/04 08:44:07;;;;;;;9.70;7.80;;;;;;;25.15;46.08;95046.63;5037150;28;20785;-78
2021/09/04 08:46:36;;;;;;;11.93;9.07;;;;;;;25.14;47.28;95049.53;5035614;28;20509;-78
2021/09/04 08:49:07;;;;;;;8.90;7.63;;;;;;;25.30;44.04;95044.47;5036027;28;20455;-77
2021/09/04 08:51:35;;;;;;;12.77;7.10;;;;;;;25.27;44.20;95039.53;5035684;28;20461;-76
2021/09/04 08:54:02;;;;;;;7.50;6.80;;;;;;;25.39;45.89;95045.03;5035144;28;20456;-76
2021/09/04 08:56:29;;;;;;;8.00;7.30;;;;;;;25.62;43.52;95047.13;5035313;28;20462;-77
2021/09/04 08:58:59;;;;;;;11.03;6.67;;;;;;;25.78;46.51;95043.94;5037506;28;20438;-78
2021/09/04 09:01:28;;;;;;;8.47;7.67;;;;;;;25.93;41.87;95044.41;5035518;28;20445;-79
2021/09/04 09:03:56;;;;;;;10.83;7.73;;;;;;;25.62;42.34;95039.06;5035609;28;20526;-78
2021/09/04 09:06:29;;;;;;;8.00;7.10;;;;;;;25.35;43.31;95040.31;5035485;28;20508;-79
2021/09/04 09:08:57;;;;;;;9.30;7.20;;;;;;;25.52;44.56;95036.06;5035297;28;20443;-78
2021/09/04 09:11:24;;;;;;;8.10;7.10;;;;;;;25.60;42.82;95033.09;5033995;28;20767;-78
2021/09/04 09:13:54;;;;;;;8.97;6.50;;;;;;;25.50;43.17;95030.09;5036050;28;20926;-78
2021/09/04 09:16:23;;;;;;;7.70;6.40;;;;;;;25.25;44.22;95033.56;5035668;28;20941;-78
2021/09/04 09:18:57;;;;;;;9.07;6.57;;;;;;;25.14;43.42;95030.75;5035343;28;20569;-78
2021/09/04 09:21:29;;;;;;;12.90;6.10;;;;;;;25.17;44.89;95033.03;5035859;28;20454;-78
2021/09/04 09:24:12;;;;;;;9.00;6.07;;;;;;;24.96;42.09;95024.22;5035839;28;20456;-78
2021/09/04 09:26:53;;;;;;;6.60;6.00;;;;;;;25.05;43.98;95022.13;5035710;28;20575;-78
2021/09/04 09:29:23;;;;;;;9.17;5.77;;;;;;;24.97;43.19;95017.81;5035638;28;20455;-78
2021/09/04 09:32:00;;;;;;;6.90;6.20;;;;;;;25.02;42.57;95015.31;5035929;28;21003;-78
2021/09/04 09:34:26;;;;;;;7.10;6.13;;;;;;;24.77;42.94;95009.03;5035573;28;20925;-78
2021/09/04 09:36:56;;;;;;;7.17;6.00;;;;;;;24.83;42.60;95005.50;5035386;28;20464;-78
2021/09/04 09:39:29;;;;;;;9.90;6.30;;;;;;;25.06;42.50;95010.34;5035574;28;20459;-79
2021/09/04 09:41:57;;;;;;;6.27;5.67;;;;;;;24.93;41.84;94999.66;5000885;28;20984;-77
2021/09/04 09:44:25;;;;;;;13.60;5.40;;;;;;;24.82;43.01;94992.28;5017100;28;20531;-78
2021/09/04 09:46:55;;;;;;;5.77;5.27;;;;;;;24.80;40.43;94995.19;5035359;28;20489;-77
2021/09/04 09:49:30;;;;;;;9.60;5.27;;;;;;;24.91;42.46;94994.50;5036015;28;20457;-78
2021/09/04 09:51:59;;;;;;;10.10;5.10;;;;;;;24.93;40.70;94972.81;5034875;28;20467;-79
2021/09/04 09:54:30;;;;;;;5.60;5.10;;;;;;;25.18;42.67;94976.41;5035114;28;20433;-80
2021/09/04 09:56:57;;;;;;;6.07;5.47;;;;;;;25.26;41.05;94969.94;5035141;28;20914;-78
2021/09/04 09:59:28;;;;;;;6.40;5.80;;;;;;;25.00;41.38;94962.88;5034990;28;20454;-81
2021/09/04 10:01:56;;;;;;;7.80;5.50;;;;;;;24.89;42.72;94972.44;5016576;28;20458;-78
2021/09/04 10:04:26;;;;;;;7.07;6.17;;;;;;;24.94;42.75;94974.47;5034729;28;20542;-78
2021/09/04 10:06:54;;;;;;;6.97;6.33;;;;;;;24.91;41.69;94966.84;5034395;28;20497;-78
2021/09/04 10:09:23;;;;;;;7.73;6.20;;;;;;;24.75;41.67;94965.50;5034828;28;20529;-80
2021/09/04 10:11:54;;;;;;;8.77;6.43;;;;;;;24.78;41.98;94959.69;5034787;28;20454;-78
2021/09/04 10:14:22;;;;;;;10.10;5.80;;;;;;;24.82;42.64;94966.25;5034643;28;20444;-78
2021/09/04 10:16:52;;;;;;;9.50;6.73;;;;;;;24.93;42.47;94962.09;5034875;28;20555;-78
2021/09/04 10:19:23;;;;;;;10.70;6.37;;;;;;;24.83;42.45;94964.41;5034660;28;20576;-79
2021/09/04 10:21:58;;;;;;;8.10;5.90;;;;;;;24.77;42.70;94958.03;5034590;28;20453;-79
2021/09/04 10:24:46;;;;;;;6.33;5.57;;;;;;;24.70;41.49;94960.78;5034827;28;20449;-78
2021/09/04 10:27:15;;;;;;;6.37;5.77;;;;;;;24.62;41.97;94952.16;5034544;28;20500;-78
2021/09/04 10:29:44;;;;;;;6.77;6.17;;;;;;;24.71;43.80;94954.38;5034526;28;20457;-78
2021/09/04 10:32:15;;;;;;;6.40;5.80;;;;;;;24.37;42.64;94947.53;5034691;28;20449;-78
2021/09/04 10:34:45;;;;;;;7.90;6.23;;;;;;;24.56;42.99;94945.75;5034748;28;20451;-78
2021/09/04 10:37:18;;;;;;;7.23;6.53;;;;;;;24.66;43.83;94940.78;5034966;28;20441;-78
2021/09/04 10:39:56;;;;;;;6.17;5.67;;;;;;;24.67;42.63;94933.53;5034622;28;20437;-78
2021/09/04 10:42:27;;;;;;;8.20;6.77;;;;;;;24.66;43.28;94927.34;5034503;28;20441;-78
2021/09/04 10:44:58;;;;;;;7.10;6.40;;;;;;;24.59;42.87;94931.94;5015846;28;20442;-79
2021/09/04 10:47:25;;;;;;;8.80;6.67;;;;;;;24.73;44.51;94930.00;5034266;28;20520;-78
2021/09/04 10:49:56;;;;;;;6.30;5.30;;;;;;;24.74;43.66;94931.63;5034011;28;20797;-79
2021/09/04 10:53:00;;;;;;;6.60;6.10;;;;;;;24.76;43.34;94918.00;5034237;28;20529;-81
2021/09/04 10:55:28;;;;;;;8.20;6.63;;;;;;;24.79;44.37;94917.56;5034277;28;20541;-80
2021/09/04 10:58:06;;;;;;;7.00;6.30;;;;;;;24.94;45.05;94916.22;5034100;28;20449;-79
2021/09/04 11:00:39;;;;;;;10.60;6.60;;;;;;;24.98;42.66;94921.97;5034584;28;20532;-84
2021/09/04 11:03:07;;;;;;;8.73;6.67;;;;;;;24.99;46.96;94929.84;5034153;28;20499;-85
2021/09/04 11:05:53;;;;;;;7.60;6.53;;;;;;;25.01;42.35;94921.56;5034624;28;20437;-84
2021/09/04 11:08:37;;;;;;;8.07;6.47;;;;;;;24.94;41.67;94921.59;5033785;28;20485;-88
2021/09/04 11:11:15;;;;;;;10.80;6.93;;;;;;;24.99;42.50;94920.97;5023882;28;20445;-87
2021/09/04 11:13:44;;;;;;;7.17;6.47;;;;;;;24.98;43.08;94916.59;5033573;28;20835;-89
2021/09/04 11:16:35;;;;;;;10.47;6.73;;;;;;;25.00;44.93;94922.59;5034508;28;20470;-88
2021/09/04 11:19:07;;;;;;;7.93;6.27;;;;;;;25.03;42.75;94919.47;4999833;28;20516;-86
2021/09/04 11:21:45;;;;;;;7.93;7.10;;;;;;;25.09;41.34;94923.16;5034611;28;20433;-89
2021/09/04 11:24:12;;;;;;;9.53;6.87;;;;;;;25.16;45.27;94916.72;5034108;28;20533;-87
2021/09/04 11:26:49;;;;;;;9.50;7.53;;;;;;;25.31;46.14;94911.81;5032944;28;20454;-87
2021/09/04 11:29:17;;;;;;;11.27;7.30;;;;;;;25.46;43.00;94911.47;5033696;28;20541;-87
2021/09/04 11:31:56;;;;;;;9.00;7.27;;;;;;;25.55;44.06;94918.19;5033500;28;20447;-86
2021/09/04 11:34:48;;;;;;;8.20;7.23;;;;;;;25.46;41.30;94924.91;5033692;28;20445;-86
2021/09/04 11:37:27;;;;;;;7.20;6.50;;;;;;;25.41;40.71;94924.72;4995886;28;20436;-86
2021/09/04 11:43:25;;;;;;;9.17;6.57;;;;;;;25.07;40.77;94915.31;5014012;28;20395;-88
2021/09/04 11:46:03;;;;;;;8.30;7.50;;;;;;;24.84;41.07;94907.00;5013907;28;20802;-85
2021/09/04 11:48:31;;;;;;;7.20;6.43;;;;;;;24.96;41.17;94898.03;5013936;28;20477;-86
2021/09/04 11:51:05;;;;;;;7.37;6.67;;;;;;;25.05;43.61;94903.16;5013655;28;20446;-85
2021/09/04 11:53:32;;;;;;;10.40;5.73;;;;;;;25.06;42.83;94897.56;5013582;28;20447;-82
2021/09/04 11:55:59;;;;;;;7.40;6.63;;;;;;;25.01;43.34;94895.53;5013426;28;20867;-84
2021/09/04 11:58:26;;;;;;;9.17;6.70;;;;;;;24.89;42.92;94888.38;5013543;28;20449;-84
2021/09/04 12:00:54;;;;;;;7.23;6.53;;;;;;;24.62;41.22;94885.91;5014173;28;20439;-84
2021/09/04 12:38:59;;;;;;;7.43;6.53;;;;;;;25.00;41.38;94837.50;5008028;28;20842;-88
2021/09/04 12:41:33;;;;;;;6.50;5.90;;;;;;;24.93;39.71;94828.66;5036019;28;21118;-87